createdAt,value
2018-07-02T00:00:55.534Z,50.10
2018-07-02T00:06:10.146Z,50.20
2018-07-02T00:11:13.325Z,50.80
2018-07-02T00:16:16.494Z,51.40
2018-07-02T00:21:19.680Z,51.10
2018-07-02T00:26:22.912Z,51.30
2018-07-02T00:31:26.022Z,51.30
2018-07-02T00:36:29.198Z,51.60
2018-07-02T00:41:32.365Z,52.40
2018-07-02T00:57:26.753Z,52.90
2018-07-02T01:02:29.910Z,53.00
2018-07-02T01:07:33.054Z,53.50
2018-07-02T01:12:36.206Z,53.50
2018-07-02T01:17:39.337Z,54.10
2018-07-02T01:22:42.685Z,54.70
2018-07-02T01:27:45.810Z,54.90
2018-07-02T01:32:48.938Z,54.70
2018-07-02T01:37:52.075Z,55.30
2018-07-02T01:42:55.222Z,55.40
2018-07-02T01:47:58.341Z,55.40
2018-07-02T01:53:01.490Z,55.90
2018-07-02T01:58:04.609Z,56.10
2018-07-02T02:03:07.761Z,56.50
2018-07-02T02:08:10.899Z,56.40
2018-07-02T02:13:14.027Z,57.30
2018-07-02T02:18:17.149Z,58.00
2018-07-02T02:23:20.382Z,57.80
2018-07-02T02:28:23.534Z,58.50
2018-07-02T02:33:26.701Z,58.40
2018-07-02T02:38:31.922Z,58.50
2018-07-02T02:43:35.158Z,58.80
2018-07-02T02:48:38.984Z,58.20
2018-07-02T02:53:42.132Z,58.80
2018-07-02T02:58:45.321Z,59.70
2018-07-02T03:03:48.497Z,59.30
2018-07-02T03:08:51.634Z,59.30
2018-07-02T03:13:55.600Z,59.30
2018-07-02T03:18:58.785Z,59.00
2018-07-02T03:24:01.949Z,60.00
2018-07-02T03:29:08.612Z,60.00
2018-07-02T03:34:11.756Z,60.00
2018-07-02T03:39:15.216Z,60.10
2018-07-02T03:44:18.398Z,60.90
2018-07-02T03:49:21.526Z,60.80
2018-07-02T03:54:24.645Z,61.40
2018-07-02T03:59:27.791Z,61.80
2018-07-02T04:04:30.999Z,61.70
2018-07-02T04:09:34.142Z,61.80
2018-07-02T04:14:37.345Z,61.50
2018-07-02T04:19:40.814Z,61.40
2018-07-02T04:24:43.965Z,60.80
2018-07-02T04:29:47.138Z,59.70
2018-07-02T04:34:50.285Z,59.50
2018-07-02T04:39:53.489Z,60.20
2018-07-02T04:44:56.633Z,61.30
2018-07-02T04:49:59.762Z,61.20
2018-07-02T04:55:02.881Z,61.70
2018-07-02T05:00:06.522Z,61.10
2018-07-02T05:05:09.653Z,61.70
2018-07-02T05:10:12.810Z,61.30
2018-07-02T05:15:15.985Z,62.00
2018-07-02T05:20:19.129Z,62.60
2018-07-02T05:25:22.278Z,61.60
2018-07-02T05:30:26.008Z,61.50
2018-07-02T05:35:29.155Z,62.90
2018-07-02T05:40:32.559Z,61.80
2018-07-02T05:45:35.746Z,61.00
2018-07-02T05:50:38.908Z,60.60
2018-07-02T05:55:42.503Z,60.50
2018-07-02T06:00:45.694Z,59.90
2018-07-02T06:05:48.873Z,59.20
2018-07-02T06:10:52.005Z,58.90
2018-07-02T06:15:55.196Z,59.30
2018-07-02T06:20:58.534Z,58.70
2018-07-02T06:26:01.708Z,58.20
2018-07-02T06:31:05.050Z,57.70
2018-07-02T06:36:08.195Z,57.50
2018-07-02T06:46:14.357Z,57.50
2018-07-02T06:51:17.536Z,57.00
2018-07-02T06:56:20.671Z,56.60
2018-07-02T07:01:24.123Z,56.60
2018-07-02T07:06:29.034Z,57.10
2018-07-02T07:11:32.194Z,56.80
2018-07-02T07:16:35.599Z,55.20
2018-07-02T07:21:39.059Z,54.70
2018-07-02T07:26:42.227Z,54.50
2018-07-02T07:31:45.359Z,53.60
2018-07-02T07:36:48.507Z,53.70
2018-07-02T07:41:51.974Z,53.80
2018-07-02T07:51:58.561Z,52.40
2018-07-02T07:57:01.775Z,52.30
2018-07-02T08:02:04.950Z,51.70
2018-07-02T08:07:08.526Z,51.40
2018-07-02T08:12:11.771Z,51.20
2018-07-02T08:17:16.183Z,48.00
2018-07-02T08:22:20.176Z,47.80
2018-07-02T08:27:23.351Z,46.90
2018-07-02T08:32:27.049Z,45.50
2018-07-02T08:37:31.350Z,45.50
2018-07-02T08:42:34.885Z,44.50
2018-07-02T08:47:38.042Z,43.60
2018-07-02T08:52:41.333Z,43.40
2018-07-02T08:57:44.486Z,42.10
2018-07-02T09:02:47.722Z,42.80
2018-07-02T09:07:52.978Z,43.40
2018-07-02T09:12:56.158Z,43.60
2018-07-02T09:17:59.314Z,42.10
2018-07-02T09:23:03.230Z,42.30
2018-07-02T09:28:06.398Z,42.10
2018-07-02T09:33:11.655Z,40.30
2018-07-02T09:38:15.207Z,39.80
2018-07-02T09:43:18.343Z,40.90
2018-07-02T09:48:21.654Z,39.10
2018-07-02T09:53:24.940Z,38.30
2018-07-02T09:58:28.057Z,38.90
2018-07-02T10:03:31.462Z,39.40
2018-07-02T10:08:35.618Z,37.60
2018-07-02T10:13:38.802Z,36.80
2018-07-02T10:18:42.807Z,37.50
2018-07-02T10:23:45.988Z,36.80
2018-07-02T10:28:50.106Z,37.20
2018-07-02T10:33:53.306Z,37.40
2018-07-02T10:38:57.701Z,36.90
2018-07-02T10:44:00.924Z,35.10
2018-07-02T10:49:04.146Z,35.90
2018-07-02T10:59:11.888Z,34.80
2018-07-02T11:04:15.427Z,34.40
2018-07-02T11:09:18.731Z,34.60
2018-07-02T11:14:23.113Z,35.20
2018-07-02T11:19:26.254Z,34.70
2018-07-02T11:24:31.508Z,34.80
2018-07-02T11:29:34.657Z,35.40
2018-07-02T11:34:40.985Z,35.00
2018-07-02T11:39:45.147Z,35.20
2018-07-02T11:44:48.794Z,36.10
2018-07-02T11:49:52.230Z,35.00
2018-07-02T11:54:58.821Z,34.00
2018-07-02T12:00:02.519Z,34.20
2018-07-02T12:05:06.575Z,33.50
2018-07-02T12:10:10.102Z,33.70
2018-07-02T12:15:13.482Z,33.10
2018-07-02T12:20:19.198Z,33.70
2018-07-02T12:25:22.618Z,33.50
2018-07-02T12:30:31.787Z,33.50
2018-07-02T12:35:37.053Z,33.40
2018-07-02T12:40:41.354Z,32.80
2018-07-02T12:45:45.916Z,32.40
2018-07-02T12:50:51.295Z,32.90
2018-07-02T12:55:54.547Z,32.00
2018-07-02T13:01:03.941Z,31.60
2018-07-02T13:06:07.399Z,32.30
2018-07-02T13:11:10.679Z,31.60
2018-07-02T13:16:14.532Z,32.70
2018-07-02T13:21:18.607Z,32.50
2018-07-02T13:26:24.112Z,31.30
2018-07-02T13:31:27.279Z,31.10
2018-07-02T13:36:34.470Z,31.70
2018-07-02T13:41:37.669Z,31.60
2018-07-02T13:46:42.357Z,31.40
2018-07-02T13:56:52.434Z,30.30
2018-07-02T14:01:56.046Z,30.90
2018-07-02T14:07:07.276Z,30.60
2018-07-02T14:12:12.524Z,30.50
2018-07-02T14:17:22.140Z,30.60
2018-07-02T14:22:25.962Z,30.40
2018-07-02T14:27:30.122Z,31.10
2018-07-02T14:32:33.290Z,31.10
2018-07-02T14:37:39.860Z,31.30
2018-07-02T14:42:43.756Z,31.00
2018-07-02T14:47:49.830Z,30.50
2018-07-02T14:52:53.726Z,29.80
2018-07-02T14:57:58.917Z,29.80
2018-07-02T15:03:03.542Z,29.60
2018-07-02T15:08:08.207Z,30.70
2018-07-02T15:13:11.621Z,30.20
2018-07-02T15:18:21.598Z,30.00
2018-07-02T15:23:36.161Z,30.20
2018-07-02T15:28:39.362Z,30.60
2018-07-02T15:33:44.943Z,31.40
2018-07-02T15:38:48.663Z,30.70
2018-07-02T15:43:51.857Z,31.60
2018-07-02T15:48:56.702Z,31.80
2018-07-02T15:54:00.771Z,32.60
2018-07-02T15:59:04.002Z,31.70
2018-07-02T16:04:10.530Z,31.20
2018-07-02T16:09:17.973Z,32.20
2018-07-02T16:14:21.121Z,32.00
2018-07-02T16:19:36.941Z,32.60
2018-07-02T16:24:40.206Z,32.40
2018-07-02T16:29:47.882Z,33.00
2018-07-02T16:34:51.589Z,33.10
2018-07-02T16:39:54.929Z,33.80
2018-07-02T16:44:58.119Z,33.90
2018-07-02T16:50:01.352Z,33.30
2018-07-02T16:55:04.526Z,34.10
2018-07-02T17:00:07.861Z,33.50
2018-07-02T17:05:11.360Z,33.70
2018-07-02T17:10:14.559Z,34.10
2018-07-02T17:15:17.692Z,34.30
2018-07-02T17:20:21.885Z,34.40
2018-07-02T17:25:26.439Z,34.20
2018-07-02T17:30:29.702Z,34.30
2018-07-02T17:35:32.952Z,34.60
2018-07-02T17:40:36.169Z,35.00
2018-07-02T17:45:39.395Z,36.10
2018-07-02T17:50:42.602Z,36.50
2018-07-02T17:55:45.753Z,36.70
2018-07-02T18:00:48.905Z,35.90
2018-07-02T18:05:52.025Z,36.30
2018-07-02T18:10:55.275Z,36.20
2018-07-02T18:15:58.443Z,35.80
2018-07-02T18:21:01.623Z,36.80
2018-07-02T18:26:05.066Z,37.10
2018-07-02T18:31:08.551Z,36.40
2018-07-02T18:36:11.709Z,37.60
2018-07-02T18:41:14.921Z,37.30
2018-07-02T18:46:18.214Z,36.80
2018-07-02T18:51:21.430Z,36.90
2018-07-02T18:56:25.021Z,36.90
2018-07-02T19:01:28.207Z,36.70
2018-07-02T19:06:31.390Z,36.60
2018-07-02T19:11:34.558Z,37.00
2018-07-02T19:16:37.759Z,36.20
2018-07-02T19:21:40.848Z,36.60
2018-07-02T19:26:43.961Z,36.40
2018-07-02T19:36:50.734Z,36.20
2018-07-02T19:41:56.574Z,36.50
2018-07-02T19:46:59.831Z,36.70
2018-07-02T19:52:03.114Z,36.60
2018-07-02T19:57:12.459Z,37.00
2018-07-02T20:02:15.634Z,37.00
2018-07-02T20:07:18.841Z,37.50
2018-07-02T20:12:21.943Z,38.10
2018-07-02T20:17:25.162Z,38.10
2018-07-02T20:22:28.313Z,38.90
2018-07-02T20:27:31.473Z,39.10
2018-07-02T20:32:34.651Z,38.70
2018-07-02T20:37:37.838Z,39.80
2018-07-02T20:42:41.127Z,39.90
2018-07-02T20:47:44.710Z,40.50
2018-07-02T20:52:47.919Z,40.60
2018-07-02T20:57:51.118Z,40.40
2018-07-02T21:02:54.277Z,40.40
2018-07-02T21:07:57.483Z,40.20
2018-07-02T21:13:00.610Z,39.80
2018-07-02T21:18:03.762Z,40.10
2018-07-02T21:23:06.901Z,39.90
2018-07-02T21:28:10.080Z,39.80
2018-07-02T21:33:13.230Z,40.30
2018-07-02T21:38:16.348Z,40.10
2018-07-02T21:43:19.513Z,40.50
2018-07-02T21:48:23.169Z,40.80
2018-07-02T21:53:26.321Z,41.40
2018-07-02T21:58:29.446Z,41.40
2018-07-02T22:03:32.626Z,41.90
2018-07-02T22:08:35.784Z,42.20
2018-07-02T22:13:39.039Z,42.50
2018-07-02T22:18:42.368Z,42.70
2018-07-02T22:23:45.506Z,43.10
2018-07-02T22:28:48.614Z,43.00
2018-07-02T22:33:51.782Z,43.10
2018-07-02T22:38:54.918Z,43.80
2018-07-02T22:43:58.310Z,45.20
2018-07-02T22:49:01.460Z,45.70
2018-07-02T22:54:04.817Z,45.10
2018-07-02T22:59:09.270Z,46.40
2018-07-02T23:04:12.398Z,45.70
2018-07-02T23:09:15.528Z,46.70
2018-07-02T23:14:18.659Z,46.70
2018-07-02T23:19:21.870Z,47.00
2018-07-02T23:24:24.991Z,47.00
2018-07-02T23:29:28.369Z,47.40
2018-07-02T23:34:31.482Z,47.80
2018-07-02T23:39:34.634Z,48.30
2018-07-02T23:44:38.770Z,49.10
2018-07-02T23:49:41.929Z,50.50
2018-07-02T23:54:48.838Z,50.50
2018-07-02T23:59:51.999Z,51.10
